Time;durP1;ratioP1;P1;durP2;ratioP2;P2;SDS_P1;SDS_P2;PMS_P1;PMS_P2;Temp;Humidity;BMP_temperature;BMP_pressure;BME280_temperature;BME280_humidity;BME280_pressure;Samples;Min_cycle;Max_cycle;Signal;HPM_P1;HPM_P2
2022/08/24 06:59:32;;;;;;;7.45;3.65;;;;;;;20.73;52.97;96779.09;2086697;28;20558;-63
2022/08/24 07:00:33;;;;;;;11.73;3.70;;;;;;;20.77;53.11;96770.75;2080992;28;20189;-64
2022/08/24 07:01:35;;;;;;;8.18;4.15;;;;;;;20.86;52.92;96777.94;2078873;28;20315;-63
2022/08/24 07:02:36;;;;;;;9.82;3.95;;;;;;;21.01;52.80;96783.78;2072684;28;20285;-63
2022/08/24 07:18:27;;;;;;;10.32;3.90;;;;;;;21.72;52.14;96791.97;2112243;27;20566;-62
2022/08/24 07:19:29;;;;;;;12.18;4.18;;;;;;;21.79;52.16;96785.13;2100142;28;20199;-63
2022/08/24 07:20:30;;;;;;;10.18;4.30;;;;;;;21.87;52.27;96797.75;2100445;28;20203;-63
2022/08/24 07:32:17;;;;;;;14.27;2.92;;;;;;;22.76;49.52;96792.41;2095818;27;20569;-61
2022/08/24 07:33:19;;;;;;;12.02;3.25;;;;;;;22.95;49.29;96806.69;2073072;28;20236;-63
2022/08/24 07:34:20;;;;;;;9.77;3.35;;;;;;;23.21;48.81;96806.94;2065662;28;20220;-64
2022/08/24 07:35:25;;;;;;;10.65;3.58;;;;;;;23.43;48.46;96803.09;2062552;28;20721;-63
2022/08/24 07:45:09;;;;;;;10.63;3.50;;;;;;;24.63;46.15;96813.81;2084120;28;20588;-62
2022/08/24 07:46:12;;;;;;;14.15;3.42;;;;;;;24.70;46.10;96811.44;2077965;28;20235;-62
2022/08/24 07:47:13;;;;;;;18.00;3.60;;;;;;;24.85;45.56;96809.88;2071835;28;20461;-63
2022/08/24 07:48:35;;;;;;;25.60;4.15;;;;;;;25.19;45.07;96811.81;2069864;28;20620;-63
2022/08/24 07:49:36;;;;;;;16.92;2.95;;;;;;;25.19;44.90;96805.63;2071077;28;20209;-63
2022/08/24 07:59:21;;;;;;;28.80;4.60;;;;;;;25.17;44.24;96807.63;2084066;28;20565;-62
2022/08/24 08:00:23;;;;;;;18.42;3.58;;;;;;;25.55;44.12;96814.41;2078093;28;20201;-63
2022/08/24 08:01:24;;;;;;;14.10;3.20;;;;;;;25.93;43.41;96819.44;2078107;28;20205;-60
2022/08/24 08:02:27;;;;;;;10.93;3.58;;;;;;;25.53;43.48;96821.72;2070399;28;20252;-63
2022/08/24 08:03:36;;;;;;;21.75;3.50;;;;;;;25.43;43.71;96810.31;2063144;28;20209;-63
2022/08/24 08:04:38;;;;;;;19.98;3.00;;;;;;;25.58;43.14;96813.25;2068997;28;20205;-63
2022/08/24 08:05:40;;;;;;;15.02;3.13;;;;;;;25.56;43.25;96809.88;2069124;28;20197;-63
2022/08/24 08:06:41;;;;;;;14.73;3.22;;;;;;;25.69;43.07;96814.81;2070317;28;20626;-63
2022/08/24 08:16:51;;;;;;;11.25;2.47;;;;;;;26.27;41.31;96785.59;2104579;27;20552;-62
2022/08/24 08:17:52;;;;;;;13.35;2.63;;;;;;;26.68;40.92;96810.59;2097688;28;20191;-63
2022/08/24 08:18:56;;;;;;;5.65;1.98;;;;;;;26.52;39.58;96813.25;2099044;28;20234;-62
2022/08/24 08:20:13;;;;;;;15.40;2.70;;;;;;;26.10;41.19;96812.31;2099408;28;20211;-63
2022/08/24 08:24:15;;;;;;;9.60;2.80;;;;;;;26.62;39.47;96811.25;2101257;28;20668;-62
2022/08/24 08:34:13;;;;;;;19.40;2.40;;;;;;;27.83;36.13;96819.56;2100480;27;20555;-62
2022/08/24 08:35:14;;;;;;;10.70;1.92;;;;;;;27.87;36.22;96810.13;2100044;28;20199;-63
2022/08/24 08:36:16;;;;;;;3.78;1.73;;;;;;;28.06;36.16;96826.88;2098452;28;20663;-63
2022/08/24 08:37:18;;;;;;;6.35;2.20;;;;;;;28.04;35.67;96827.06;2081681;28;20872;-63
2022/08/24 08:38:20;;;;;;;9.90;2.30;;;;;;;27.80;36.04;96823.41;2082376;28;20547;-63
2022/08/24 08:39:22;;;;;;;21.33;2.33;;;;;;;28.02;35.75;96829.03;2082932;28;20678;-63
2022/08/24 08:40:44;;;;;;;14.40;2.20;;;;;;;28.01;35.72;96813.94;2083355;28;20201;-63
2022/08/24 08:42:13;;;;;;;9.85;2.20;;;;;;;28.34;35.20;96830.78;2081671;28;20226;-63
2022/08/24 08:43:32;;;;;;;3.47;1.67;;;;;;;28.44;35.09;96818.97;2086641;28;20203;-63
2022/08/24 08:54:11;;;;;;;19.77;2.67;;;;;;;27.34;34.19;96815.97;2083945;28;20559;-62
2022/08/24 08:55:31;;;;;;;4.75;1.80;;;;;;;27.32;34.47;96825.19;2078196;28;20231;-62
2022/08/24 08:56:54;;;;;;;4.53;1.60;;;;;;;27.59;34.28;96829.38;2075219;28;20204;-62
2022/08/24 08:58:16;;;;;;;6.53;1.70;;;;;;;27.31;33.78;96824.38;2068263;28;20198;-64
2022/08/24 08:59:29;;;;;;;14.60;1.88;;;;;;;26.39;35.66;96808.38;2068579;28;20206;-63
2022/08/24 09:00:52;;;;;;;11.65;1.80;;;;;;;27.30;35.24;96822.69;2067313;28;20585;-63
2022/08/24 09:02:09;;;;;;;6.25;1.65;;;;;;;27.79;34.53;96813.69;2068262;28;20232;-62
2022/08/24 09:03:42;;;;;;;7.20;1.63;;;;;;;28.09;34.17;96822.00;2067807;28;20660;-63
2022/08/24 09:05:09;;;;;;;9.52;1.83;;;;;;;28.40;33.43;96823.03;2066185;28;20198;-64
2022/08/24 09:15:43;;;;;;;2.85;1.65;;;;;;;29.93;31.69;96818.56;2091961;27;20552;-63
2022/08/24 09:16:57;;;;;;;7.78;1.90;;;;;;;30.05;31.44;96814.34;2076629;28;20236;-62
2022/08/24 09:18:02;;;;;;;3.63;1.55;;;;;;;30.13;31.73;96816.09;2066985;28;20209;-63
2022/08/24 09:19:23;;;;;;;4.20;1.80;;;;;;;30.11;31.11;96810.91;2066927;28;20201;-63
2022/08/24 09:21:08;;;;;;;14.38;2.10;;;;;;;30.01;30.88;96820.31;2068596;28;20673;-63
2022/08/24 09:22:14;;;;;;;6.30;1.70;;;;;;;30.33;30.50;96815.50;2043567;28;20232;-62
2022/08/24 09:23:31;;;;;;;6.03;1.50;;;;;;;30.13;30.10;96818.78;2043848;28;20196;-62
2022/08/24 09:24:51;;;;;;;4.03;2.00;;;;;;;30.35;30.42;96822.38;2062259;28;20210;-62
2022/08/24 09:26:08;;;;;;;4.82;1.58;;;;;;;30.46;30.15;96813.81;2062534;28;20202;-62
2022/08/24 09:27:31;;;;;;;6.07;1.65;;;;;;;29.84;31.27;96815.09;2071321;28;20718;-62
2022/08/24 09:28:43;;;;;;;3.97;1.40;;;;;;;30.13;30.87;96816.94;2076936;28;20192;-62
2022/08/24 09:29:55;;;;;;;9.50;1.48;;;;;;;29.79;30.74;96815.66;2086284;28;20257;-62
2022/08/24 09:41:16;;;;;;;2.55;1.50;;;;;;;29.65;30.50;96821.88;2086555;28;20547;-64
2022/08/24 09:42:42;;;;;;;5.63;1.75;;;;;;;29.96;30.32;96816.31;2084315;28;20234;-64
2022/08/24 09:43:48;;;;;;;11.57;2.10;;;;;;;30.32;29.75;96822.75;2081254;28;20228;-64
2022/08/24 09:45:00;;;;;;;12.50;1.30;;;;;;;30.53;29.81;96815.78;2081602;28;20203;-64
2022/08/24 09:46:39;;;;;;;5.10;1.15;;;;;;;30.68;29.62;96821.94;2079064;28;20193;-64
2022/08/24 09:48:04;;;;;;;3.42;1.48;;;;;;;30.79;29.31;96817.88;2083273;28;20218;-64
2022/08/24 09:49:11;;;;;;;8.05;1.55;;;;;;;31.02;28.83;96822.25;2082432;28;20200;-64
2022/08/24 09:50:36;;;;;;;2.00;1.25;;;;;;;31.06;28.36;96821.69;2074795;28;20197;-65
2022/08/24 09:52:01;;;;;;;3.87;1.23;;;;;;;31.07;28.61;96820.69;2077707;28;20201;-65
2022/08/24 09:53:26;;;;;;;3.70;1.53;;;;;;;30.95;28.78;96819.50;2080965;28;20513;-64
2022/08/24 09:54:36;;;;;;;4.83;1.30;;;;;;;31.24;28.13;96818.53;2082165;28;20425;-65
2022/08/24 09:56:03;;;;;;;4.13;1.30;;;;;;;31.37;27.84;96803.47;2074415;28;20435;-64
2022/08/24 09:57:30;;;;;;;7.60;1.43;;;;;;;31.67;28.30;96823.00;2077892;28;20462;-64
2022/08/24 09:59:03;;;;;;;2.77;1.40;;;;;;;31.83;28.25;96821.00;2081939;28;20433;-64
2022/08/24 10:00:12;;;;;;;2.80;1.30;;;;;;;31.87;27.72;96819.56;2080354;28;20442;-65
2022/08/24 10:01:35;;;;;;;3.87;1.10;;;;;;;31.45;27.24;96814.09;2080923;28;20427;-59
2022/08/24 10:02:42;;;;;;;8.47;1.43;;;;;;;31.75;26.93;96817.44;2081472;28;20439;-57
2022/08/24 10:04:06;;;;;;;2.63;1.13;;;;;;;32.15;26.74;96818.66;2076806;28;20946;-57
2022/08/24 10:05:07;;;;;;;2.53;1.40;;;;;;;30.97;27.58;96822.84;2083463;28;20437;-59
2022/08/24 10:06:26;;;;;;;5.00;1.50;;;;;;;31.67;27.80;96820.31;2083966;28;20947;-59
2022/08/24 10:07:54;;;;;;;3.43;1.20;;;;;;;32.20;27.39;96824.31;2077716;28;20445;-59
2022/08/24 10:09:13;;;;;;;1.90;1.13;;;;;;;32.62;26.97;96817.00;2084241;28;20429;-59
2022/08/24 10:10:38;;;;;;;6.33;1.70;;;;;;;32.76;26.32;96820.59;2084237;28;20429;-59
2022/08/24 10:12:00;;;;;;;2.63;1.60;;;;;;;32.92;26.21;96818.53;2084529;28;20429;-59
2022/08/24 10:25:43;;;;;;;4.87;1.37;;;;;;;32.78;26.38;96820.38;2085747;28;20586;-57
2022/08/24 10:27:19;;;;;;;2.93;1.43;;;;;;;32.74;26.49;96811.03;2080927;28;20958;-58
2022/08/24 10:28:48;;;;;;;4.10;1.57;;;;;;;29.76;29.87;96813.34;2072952;28;20427;-58
2022/08/24 10:30:20;;;;;;;1.50;1.20;;;;;;;31.12;28.61;96811.97;2062000;28;20429;-60
2022/08/24 10:31:37;;;;;;;6.87;1.57;;;;;;;30.40;29.61;96802.97;2070312;28;20432;-60
2022/08/24 10:32:54;;;;;;;4.53;1.33;;;;;;;31.80;28.67;96807.94;2075952;28;20440;-57
2022/08/24 10:34:24;;;;;;;7.30;1.57;;;;;;;29.09;30.71;96796.19;2076766;28;20436;-57
2022/08/24 10:35:56;;;;;;;6.00;1.33;;;;;;;29.09;31.29;96801.56;2071190;28;20432;-58
2022/08/24 10:37:24;;;;;;;3.03;1.20;;;;;;;30.42;29.66;96796.38;2070634;28;20505;-57
2022/08/24 10:40:31;;;;;;;4.73;1.37;;;;;;;31.50;28.34;96792.75;2074239;28;20576;-58
2022/08/24 10:41:55;;;;;;;6.50;1.50;;;;;;;31.91;27.93;96793.88;2073192;28;20474;-58
2022/08/24 10:44:53;;;;;;;2.70;1.20;;;;;;;30.93;28.73;96787.34;2075319;28;20430;-58
2022/08/24 10:46:31;;;;;;;5.63;1.53;;;;;;;31.06;28.21;96794.75;2072814;28;20782;-58
2022/08/24 10:47:35;;;;;;;6.20;1.70;;;;;;;32.76;27.24;96803.53;2071776;28;20445;-58
2022/08/24 10:48:54;;;;;;;1.73;1.00;;;;;;;33.36;26.45;96792.75;2070175;28;20431;-58
2022/08/24 10:50:02;;;;;;;8.30;1.60;;;;;;;33.72;26.29;96798.72;2072440;28;20463;-58
2022/08/24 10:51:09;;;;;;;5.70;1.57;;;;;;;34.05;25.79;96797.81;2073893;28;20433;-58
2022/08/24 10:52:36;;;;;;;3.73;1.20;;;;;;;33.96;25.66;96791.81;2072305;28;21020;-58
2022/08/24 10:53:38;;;;;;;6.83;1.40;;;;;;;34.31;25.67;96792.28;2074015;28;20444;-64
2022/08/24 10:54:40;;;;;;;2.80;1.40;;;;;;;34.49;25.43;96788.03;2074592;28;21107;-63
2022/08/24 10:55:42;;;;;;;4.37;1.40;;;;;;;34.17;25.51;96794.22;2071081;28;20426;-59
2022/08/24 10:57:02;;;;;;;6.20;1.40;;;;;;;34.66;25.35;96791.91;2074926;28;20424;-58
2022/08/24 10:58:23;;;;;;;5.70;1.80;;;;;;;34.65;25.27;96790.25;2075574;28;20437;-59
2022/08/24 10:59:48;;;;;;;4.07;1.60;;;;;;;34.88;25.08;96788.88;2072236;28;20441;-59
2022/08/24 11:00:50;;;;;;;3.30;1.83;;;;;;;34.53;25.40;96791.97;2068476;28;20441;-59
2022/08/24 11:02:26;;;;;;;2.63;1.43;;;;;;;34.76;25.78;96788.69;2073203;28;20575;-59
2022/08/24 11:03:28;;;;;;;3.03;1.30;;;;;;;35.22;24.88;96792.09;2065463;28;20958;-59
2022/08/24 11:04:33;;;;;;;3.23;1.60;;;;;;;35.19;24.52;96776.28;2074916;28;20434;-59
2022/08/24 11:05:44;;;;;;;2.53;1.57;;;;;;;35.29;24.23;96794.78;2073015;28;20467;-59
2022/08/24 11:07:17;;;;;;;8.17;1.67;;;;;;;35.48;24.76;96799.22;2072846;28;20463;-59
2022/08/24 11:08:22;;;;;;;5.93;1.37;;;;;;;35.61;24.46;96803.66;2072686;28;21082;-61
2022/08/24 11:21:44;;;;;;;3.77;1.50;;;;;;;35.54;25.18;96789.34;2084017;28;20587;-58
2022/08/24 11:23:22;;;;;;;7.17;1.70;;;;;;;35.48;24.88;96784.81;2081730;28;20430;-58
2022/08/24 11:24:46;;;;;;;2.40;1.40;;;;;;;35.74;24.99;96785.59;2078873;28;20472;-58
2022/08/24 11:26:01;;;;;;;5.90;1.83;;;;;;;36.15;24.63;96777.81;2082317;28;20424;-58
2022/08/24 11:27:17;;;;;;;3.07;1.33;;;;;;;36.47;24.20;96778.47;2083200;28;20962;-58
2022/08/24 11:28:28;;;;;;;5.53;1.60;;;;;;;35.52;25.29;96783.31;2081373;28;20950;-59
2022/08/24 11:29:48;;;;;;;2.70;1.30;;;;;;;35.07;25.32;96768.06;2082387;28;20433;-59
2022/08/24 11:30:50;;;;;;;4.50;1.83;;;;;;;34.73;25.54;96766.59;2074618;28;20488;-58
2022/08/24 11:31:51;;;;;;;4.10;1.27;;;;;;;35.15;25.21;96766.94;2074697;28;20458;-58
2022/08/24 11:32:57;;;;;;;6.73;1.53;;;;;;;35.24;24.79;96768.31;2083802;28;20428;-58
2022/08/24 11:34:08;;;;;;;8.20;1.60;;;;;;;35.40;24.63;96768.81;2085576;28;20432;-58
2022/08/24 11:35:18;;;;;;;4.90;1.60;;;;;;;36.00;24.65;96768.19;2086471;28;20436;-58
2022/08/24 11:36:24;;;;;;;11.80;2.47;;;;;;;36.34;23.95;96767.75;2080450;28;20944;-58
2022/08/24 11:37:35;;;;;;;8.90;1.60;;;;;;;35.54;24.58;96769.50;2079682;28;20445;-58
2022/08/24 11:38:37;;;;;;;5.30;1.50;;;;;;;35.67;24.75;96763.94;2080284;28;20455;-58
2022/08/24 11:39:46;;;;;;;3.37;1.40;;;;;;;36.00;24.61;96768.19;2081640;28;20429;-58
2022/08/24 11:41:11;;;;;;;2.23;1.23;;;;;;;36.17;23.72;96770.28;2082879;28;20430;-58
2022/08/24 11:42:28;;;;;;;3.17;1.20;;;;;;;36.16;23.79;96774.03;2081174;28;20465;-58
2022/08/24 11:43:51;;;;;;;2.37;1.23;;;;;;;36.53;23.74;96780.25;2081328;28;20436;-58
2022/08/24 11:45:11;;;;;;;9.77;1.70;;;;;;;35.50;24.87;96763.69;2082398;28;20434;-59
2022/08/24 11:46:26;;;;;;;2.00;1.20;;;;;;;36.26;24.41;96764.28;2082020;28;20456;-59
2022/08/24 11:47:49;;;;;;;17.10;1.87;;;;;;;32.45;27.01;96761.66;2081876;28;20436;-60
2022/08/24 11:48:51;;;;;;;5.20;1.60;;;;;;;31.45;29.08;96767.41;2083384;28;20440;-59
2022/08/24 11:50:02;;;;;;;4.77;1.47;;;;;;;33.51;27.22;96766.28;2083649;28;20412;-59
2022/08/24 11:51:25;;;;;;;5.83;1.10;;;;;;;31.85;28.51;96768.50;2091706;28;21026;-59
2022/08/24 11:52:26;;;;;;;3.00;1.83;;;;;;;33.04;27.71;96770.91;2085661;28;20495;-59
2022/08/24 11:53:57;;;;;;;5.17;1.60;;;;;;;30.81;30.00;96761.94;2081647;28;20432;-59
2022/08/24 11:55:13;;;;;;;3.93;1.70;;;;;;;33.45;27.39;96759.00;2083792;28;20426;-59
2022/08/24 11:56:26;;;;;;;9.83;2.20;;;;;;;35.03;26.12;96755.97;2075733;28;20776;-59
2022/08/24 11:57:50;;;;;;;4.40;1.47;;;;;;;35.50;25.54;96766.41;2083232;28;20439;-59
2022/08/24 11:59:09;;;;;;;3.93;1.40;;;;;;;35.93;25.27;96768.25;2083026;28;20436;-59
2022/08/24 12:00:18;;;;;;;8.43;1.53;;;;;;;36.28;24.48;96767.59;2083962;28;20428;-59
2022/08/24 12:01:31;;;;;;;3.80;1.30;;;;;;;36.58;24.46;96764.09;2081466;28;20454;-60
2022/08/24 12:02:53;;;;;;;3.30;1.70;;;;;;;36.59;24.05;96771.16;2081363;28;20526;-59
2022/08/24 12:04:32;;;;;;;2.57;1.47;;;;;;;33.64;26.55;96762.72;2081259;28;20457;-59
2022/08/24 12:05:55;;;;;;;11.10;1.40;;;;;;;35.03;25.34;96768.72;2081456;28;20433;-59
2022/08/24 12:07:18;;;;;;;6.80;1.47;;;;;;;34.46;26.10;96756.78;2079481;28;20465;-59
2022/08/24 12:08:25;;;;;;;3.23;1.40;;;;;;;34.48;26.26;96757.38;2080049;28;20429;-59
2022/08/24 12:09:42;;;;;;;5.97;1.60;;;;;;;35.91;24.85;96754.09;2082936;28;20433;-59
2022/08/24 12:11:00;;;;;;;1.97;1.30;;;;;;;36.49;23.46;96765.47;2081162;28;20661;-59
2022/08/24 12:12:29;;;;;;;4.03;1.40;;;;;;;36.58;24.23;96757.81;2089487;28;20456;-60
2022/08/24 12:14:03;;;;;;;4.87;1.20;;;;;;;36.88;23.15;96760.50;2085952;28;20467;-59
2022/08/24 12:26:11;;;;;;;2.80;1.23;;;;;;;36.06;23.30;96750.13;2083519;28;20938;-60
2022/08/24 12:27:19;;;;;;;5.43;1.40;;;;;;;36.33;22.99;96750.63;2072588;28;20496;-60
2022/08/24 12:28:29;;;;;;;3.47;1.23;;;;;;;36.47;21.76;96712.38;2074125;28;20449;-60
2022/08/24 12:29:39;;;;;;;7.23;1.80;;;;;;;37.29;21.65;96749.75;2071416;28;20435;-60
2022/08/24 12:30:41;;;;;;;5.70;1.30;;;;;;;37.18;21.86;96743.28;2074856;28;20433;-60
2022/08/24 12:31:51;;;;;;;3.30;1.40;;;;;;;37.12;22.05;96746.94;2072962;28;20469;-61
2022/08/24 12:32:59;;;;;;;3.77;1.27;;;;;;;36.83;21.99;96744.03;2075329;28;20434;-60
2022/08/24 12:34:09;;;;;;;6.07;1.37;;;;;;;37.55;21.42;96748.47;2075976;28;20431;-60
2022/08/24 12:35:25;;;;;;;4.63;1.30;;;;;;;37.74;21.69;96738.25;2071585;28;20929;-61
2022/08/24 12:36:37;;;;;;;2.00;1.10;;;;;;;37.80;20.95;96747.41;2074729;28;20525;-61
2022/08/24 12:37:50;;;;;;;2.60;1.03;;;;;;;37.94;21.17;96738.94;2076642;28;20438;-60
2022/08/24 12:39:11;;;;;;;4.50;1.20;;;;;;;37.90;21.19;96736.72;2072127;28;20461;-59
2022/08/24 12:40:32;;;;;;;1.83;1.03;;;;;;;38.08;20.98;96737.59;2073131;28;20428;-58
2022/08/24 12:41:46;;;;;;;2.57;1.40;;;;;;;37.92;21.72;96736.47;2074519;28;20530;-58
2022/08/24 12:43:09;;;;;;;1.57;1.13;;;;;;;37.98;20.95;96727.34;2075771;28;20447;-59
2022/08/24 12:44:13;;;;;;;3.53;1.80;;;;;;;37.82;21.71;96730.81;2070033;28;20530;-59
2022/08/24 12:45:18;;;;;;;1.93;1.00;;;;;;;37.28;21.86;96741.84;2071135;28;20431;-58
2022/08/24 12:46:25;;;;;;;4.23;1.20;;;;;;;37.55;21.91;96745.75;2070678;28;20436;-58
2022/08/24 12:47:38;;;;;;;2.40;1.20;;;;;;;37.63;21.82;96727.41;2073098;28;20479;-58
2022/08/24 12:48:59;;;;;;;3.00;1.00;;;;;;;37.56;21.68;96738.41;2074812;28;20787;-59
2022/08/24 12:50:08;;;;;;;2.90;0.93;;;;;;;37.86;21.51;96751.06;2075360;28;20518;-58
2022/08/24 12:51:15;;;;;;;2.30;1.20;;;;;;;38.00;21.13;96748.88;2075261;28;20921;-58
2022/08/24 12:52:19;;;;;;;9.53;1.27;;;;;;;34.82;24.16;96738.19;2075738;28;20463;-59
2022/08/24 12:53:39;;;;;;;3.70;1.40;;;;;;;32.76;26.08;96709.78;2075905;28;20431;-58
2022/08/24 12:55:21;;;;;;;1.70;1.00;;;;;;;31.80;27.43;96741.28;2079151;28;20430;-58
2022/08/24 12:56:47;;;;;;;6.03;1.13;;;;;;;33.06;26.24;96736.34;2077334;28;20469;-58
2022/08/24 12:58:07;;;;;;;2.37;1.13;;;;;;;35.05;24.46;96725.94;2072150;28;20449;-58
2022/08/24 12:59:32;;;;;;;3.33;1.10;;;;;;;35.38;23.79;96730.22;2066534;28;20439;-60
2022/08/24 13:00:43;;;;;;;8.43;1.60;;;;;;;36.49;22.83;96724.69;2074034;28;20951;-60
2022/08/24 13:01:56;;;;;;;5.03;1.50;;;;;;;35.07;23.61;96726.50;2075361;28;20466;-60
2022/08/24 13:03:03;;;;;;;3.87;1.50;;;;;;;34.95;24.71;96721.81;2080282;28;20435;-61
2022/08/24 13:04:10;;;;;;;3.30;1.40;;;;;;;33.42;25.53;96739.66;2075505;28;20422;-57
2022/08/24 13:05:18;;;;;;;5.33;1.17;;;;;;;33.60;25.26;96734.41;2076139;28;20430;-60
2022/08/24 13:06:39;;;;;;;12.60;1.97;;;;;;;33.05;26.10;96724.72;2074552;28;20432;-60
2022/08/24 13:07:47;;;;;;;24.40;2.30;;;;;;;33.94;25.08;96710.78;2073567;28;20464;-60
2022/08/24 13:08:50;;;;;;;6.00;1.53;;;;;;;32.65;25.88;96729.28;2073650;28;20442;-60
2022/08/24 13:09:52;;;;;;;29.50;1.43;;;;;;;31.38;27.55;96726.94;2073680;28;20769;-58
2022/08/24 13:11:04;;;;;;;24.13;2.33;;;;;;;31.07;28.53;96720.94;2074847;28;20447;-57
2022/08/24 13:12:45;;;;;;;20.83;2.40;;;;;;;32.49;26.72;96731.31;2066061;28;20486;-58
2022/08/24 13:14:23;;;;;;;19.07;3.00;;;;;;;33.39;26.15;96724.69;2070548;28;20442;-57
2022/08/24 13:15:30;;;;;;;7.40;1.40;;;;;;;34.20;24.92;96727.13;2071845;28;20445;-59
2022/08/24 13:16:56;;;;;;;10.63;1.60;;;;;;;33.78;25.20;96722.06;2073588;28;20472;-58
2022/08/24 13:18:07;;;;;;;2.27;1.37;;;;;;;35.56;23.50;96724.78;2071791;28;20524;-59
2022/08/24 13:19:16;;;;;;;4.60;1.30;;;;;;;36.39;22.54;96724.41;2074296;28;20496;-59
2022/08/24 13:20:27;;;;;;;6.83;1.13;;;;;;;36.90;22.25;96725.75;2073348;28;20434;-58
2022/08/24 13:21:40;;;;;;;4.60;1.40;;;;;;;37.45;21.61;96722.91;2072353;28;20435;-58
2022/08/24 13:23:11;;;;;;;1.90;1.00;;;;;;;38.00;21.39;96710.75;2073919;28;20434;-58
2022/08/24 13:24:58;;;;;;;3.70;1.57;;;;;;;38.21;21.36;96717.41;2073651;28;20552;-58
2022/08/24 13:26:21;;;;;;;4.70;1.73;;;;;;;37.71;21.11;96722.41;2071299;28;20489;-63
2022/08/24 13:27:23;;;;;;;1.93;0.90;;;;;;;37.19;21.87;96720.44;2074975;28;20466;-63
2022/08/24 13:28:24;;;;;;;1.30;1.00;;;;;;;37.81;21.55;96719.09;2075583;28;20435;-63
2022/08/24 13:29:32;;;;;;;5.47;1.40;;;;;;;36.91;22.36;96716.53;2075388;28;20427;-63
2022/08/24 13:30:53;;;;;;;24.17;1.67;;;;;;;35.88;22.96;96721.13;2067208;28;20435;-63
2022/08/24 13:31:58;;;;;;;19.67;2.00;;;;;;;35.45;23.45;96720.97;2065820;28;20524;-63
2022/08/24 13:33:08;;;;;;;49.00;2.40;;;;;;;35.21;23.92;96711.78;2075852;28;20790;-63
2022/08/24 13:34:13;;;;;;;29.97;4.00;;;;;;;35.50;23.54;96716.72;2076060;28;20427;-63
2022/08/24 13:35:39;;;;;;;20.87;2.37;;;;;;;35.79;23.17;96715.94;2075708;28;20437;-63
2022/08/24 13:37:05;;;;;;;25.10;2.43;;;;;;;33.96;24.46;96705.97;2066358;28;20431;-63
2022/08/24 13:38:36;;;;;;;11.90;1.70;;;;;;;34.44;24.81;96707.38;2061407;28;20440;-63
2022/08/24 13:40:16;;;;;;;8.17;1.30;;;;;;;33.15;25.57;96708.03;2074207;28;21050;-63
2022/08/24 13:41:48;;;;;;;29.97;2.90;;;;;;;33.41;25.41;96714.50;2069173;28;20443;-63
2022/08/24 13:43:01;;;;;;;3.53;1.63;;;;;;;31.17;27.27;96709.78;2073035;28;20445;-63
2022/08/24 13:44:18;;;;;;;10.43;1.73;;;;;;;31.98;26.62;96699.41;2074040;28;20499;-62
2022/08/24 13:45:34;;;;;;;7.70;1.60;;;;;;;32.71;26.34;96691.44;2070296;28;20434;-63
2022/08/24 13:47:05;;;;;;;9.40;1.70;;;;;;;34.24;25.04;96703.97;2066145;28;20569;-63
2022/08/24 13:48:06;;;;;;;2.40;1.40;;;;;;;35.47;23.68;96716.13;2064183;28;20453;-63
2022/08/24 13:49:13;;;;;;;1.53;1.20;;;;;;;36.04;22.84;96700.66;2067536;28;20427;-63
2022/08/24 13:50:39;;;;;;;2.50;1.50;;;;;;;36.61;22.38;96702.97;2067119;28;20442;-63
2022/08/24 13:52:07;;;;;;;1.60;0.93;;;;;;;37.18;21.98;96710.63;2067433;28;20426;-63
2022/08/24 13:53:30;;;;;;;3.37;0.90;;;;;;;37.36;21.71;96708.88;2069913;28;20454;-63
2022/08/24 13:54:36;;;;;;;2.67;1.70;;;;;;;37.53;20.89;96707.03;2070658;28;20442;-63
2022/08/24 13:55:52;;;;;;;1.17;0.90;;;;;;;37.10;20.63;96708.22;2076259;28;20434;-63
2022/08/24 13:57:23;;;;;;;3.60;0.83;;;;;;;37.36;20.98;96703.41;2076016;28;20508;-63
2022/08/24 13:59:03;;;;;;;1.80;1.17;;;;;;;37.28;20.54;96710.00;2071395;28;20450;-63
2022/08/24 14:00:28;;;;;;;2.00;0.90;;;;;;;36.90;20.57;96709.44;2071221;28;21209;-63
2022/08/24 14:01:32;;;;;;;5.17;1.17;;;;;;;37.64;20.34;96712.72;2069671;28;20473;-63
2022/08/24 14:02:52;;;;;;;15.73;2.20;;;;;;;34.26;22.47;96699.97;2070116;28;20577;-63
2022/08/24 14:04:06;;;;;;;28.00;2.83;;;;;;;33.25;23.40;96704.91;2064907;28;20423;-63
2022/08/24 14:05:17;;;;;;;28.40;2.90;;;;;;;33.65;23.78;96703.97;2067140;28;20438;-63
2022/08/24 14:06:49;;;;;;;9.60;1.80;;;;;;;35.68;22.14;96697.72;2067635;28;20549;-63
2022/08/24 14:08:10;;;;;;;1.93;1.10;;;;;;;36.62;21.21;96696.44;2063832;28;20442;-64
2022/08/24 14:09:19;;;;;;;3.90;1.70;;;;;;;37.06;20.54;96701.63;2071469;28;20427;-64
2022/08/24 14:10:40;;;;;;;7.80;1.43;;;;;;;34.06;23.05;96694.69;2064378;28;20469;-64
2022/08/24 14:11:57;;;;;;;11.07;1.43;;;;;;;35.11;23.21;96703.31;2065333;28;20444;-64
2022/08/24 14:13:01;;;;;;;2.40;1.23;;;;;;;33.26;24.83;96703.06;2066368;28;20431;-64
2022/08/24 14:14:35;;;;;;;2.93;1.20;;;;;;;34.66;23.68;96688.03;2067575;28;20485;-64
2022/08/24 14:17:50;;;;;;;18.23;1.80;;;;;;;32.93;24.53;96687.72;2068638;28;20438;-64
2022/08/24 14:17:51;;;;;;;2.53;1.10;;;;;;;31.05;26.67;96692.47;2065938;28;20520;-63
2022/08/24 14:19:10;;;;;;;9.60;1.50;;;;;;;33.21;24.96;96687.44;2059845;28;20854;-63
2022/08/24 14:20:47;;;;;;;8.90;1.40;;;;;;;31.08;26.27;96692.09;2056098;28;20660;-63
2022/08/24 14:22:00;;;;;;;9.13;1.50;;;;;;;32.20;25.78;96684.75;2066726;28;20461;-63
2022/08/24 14:23:29;;;;;;;6.23;1.10;;;;;;;33.73;24.24;96682.09;2068076;28;20442;-63
2022/08/24 14:24:42;;;;;;;3.87;1.30;;;;;;;33.59;24.13;96688.63;2064918;28;20954;-63
2022/08/24 14:25:48;;;;;;;7.10;1.50;;;;;;;31.82;26.00;96685.25;2066172;28;20524;-63
2022/08/24 14:27:04;;;;;;;3.20;1.30;;;;;;;32.20;25.63;96679.34;2067148;28;20471;-63
2022/08/24 14:28:38;;;;;;;38.60;2.43;;;;;;;34.20;24.10;96687.31;2067414;28;20438;-63
2022/08/24 14:29:43;;;;;;;17.70;1.60;;;;;;;33.13;24.89;96687.66;2068567;28;20462;-58
2022/08/24 14:30:46;;;;;;;4.50;1.60;;;;;;;32.28;26.46;96682.88;2067239;28;20426;-58
2022/08/24 14:31:54;;;;;;;4.80;1.50;;;;;;;31.35;27.24;96685.00;2067414;28;20901;-58
2022/08/24 14:33:19;;;;;;;4.70;1.43;;;;;;;30.30;28.53;96672.13;2068315;28;21389;-58
2022/08/24 14:34:52;;;;;;;12.53;1.60;;;;;;;30.53;28.37;96678.41;2067492;28;21060;-58
2022/08/24 14:36:18;;;;;;;20.40;1.60;;;;;;;31.98;26.91;96673.22;2065157;28;20438;-58
2022/08/24 14:37:44;;;;;;;7.93;1.90;;;;;;;33.52;25.71;96675.94;2066865;28;20458;-58
2022/08/24 14:39:16;;;;;;;1.60;1.30;;;;;;;33.82;24.97;96671.91;2067417;28;20438;-58
2022/08/24 14:40:27;;;;;;;7.73;1.50;;;;;;;30.99;27.67;96671.69;2066732;28;20936;-58
2022/08/24 14:41:28;;;;;;;4.20;1.17;;;;;;;31.96;27.28;96677.16;2066639;28;21223;-58
2022/08/24 14:42:40;;;;;;;3.17;1.40;;;;;;;33.33;26.12;96672.25;2069005;28;20431;-58
2022/08/24 14:43:56;;;;;;;2.00;1.10;;;;;;;34.56;24.62;96674.97;2067941;28;20433;-58
2022/08/24 14:45:12;;;;;;;2.07;1.00;;;;;;;35.27;23.43;96675.59;2068945;28;20517;-58
2022/08/24 14:46:24;;;;;;;2.23;1.60;;;;;;;35.77;23.44;96671.06;2069281;28;20436;-58
2022/08/24 14:47:43;;;;;;;3.73;1.23;;;;;;;35.56;23.17;96672.41;2066483;28;20900;-58
2022/08/24 14:49:08;;;;;;;4.00;1.20;;;;;;;36.19;22.69;96676.59;2066416;28;20423;-58
2022/08/24 14:50:20;;;;;;;2.17;1.37;;;;;;;36.33;21.78;96682.66;2067610;28;20430;-63
2022/08/24 14:51:40;;;;;;;5.00;1.40;;;;;;;36.40;21.98;96688.84;2067518;28;20979;-58
2022/08/24 14:53:03;;;;;;;2.17;1.30;;;;;;;36.92;21.59;96673.81;2067899;28;20451;-60
2022/08/24 14:54:11;;;;;;;5.27;1.13;;;;;;;35.33;22.25;96686.63;2067772;28;20902;-59
2022/08/24 14:55:18;;;;;;;4.93;1.20;;;;;;;34.99;23.10;96682.38;2069546;28;20438;-58
2022/08/24 14:56:44;;;;;;;5.87;1.17;;;;;;;35.93;21.98;96658.78;2070376;28;20860;-59
2022/08/24 14:57:59;;;;;;;2.37;1.13;;;;;;;36.55;21.80;96680.25;2064783;28;21020;-59
2022/08/24 14:59:38;;;;;;;3.63;1.33;;;;;;;36.70;21.96;96685.25;2065485;28;20503;-59
2022/08/24 15:01:06;;;;;;;1.97;1.00;;;;;;;36.38;21.99;96677.41;2063225;28;20428;-59
2022/08/24 15:02:44;;;;;;;22.43;17.10;;;;;;;36.50;22.01;96684.75;2061450;28;20513;-59
2022/08/24 15:04:00;;;;;;;5.83;4.30;;;;;;;35.23;22.74;96676.28;2064608;28;21016;-60
2022/08/24 15:05:21;;;;;;;11.60;10.37;;;;;;;36.08;22.04;96674.69;2071424;28;20490;-59
2022/08/24 15:06:39;;;;;;;24.87;18.53;;;;;;;36.40;21.92;96666.28;2064467;28;20993;-60
2022/08/24 15:07:52;;;;;;;4.40;0.80;;;;;;;33.63;23.90;96662.78;2066052;28;20457;-60